Time;durP1;ratioP1;P1;durP2;ratioP2;P2;SDS_P1;SDS_P2;PMS_P1;PMS_P2;Temp;Humidity;BMP_temperature;BMP_pressure;BME280_temperature;BME280_humidity;BME280_pressure;Samples;Min_cycle;Max_cycle;Signal;HPM_P1;HPM_P2
2024/03/23 00:01:45;;;;;;;0.00;0.00;;;;;;;7.00;61.14;100975.84;7362582;19;20014;-60
2024/03/23 00:04:12;;;;;;;0.10;0.10;;;;;;;7.00;61.29;100975.84;7358832;19;20003;-60
2024/03/23 00:06:39;;;;;;;0.10;0.10;;;;;;;7.01;61.05;100976.72;7361750;19;20045;-60
2024/03/23 00:09:06;;;;;;;0.10;0.10;;;;;;;7.01;61.03;100982.75;7357971;19;20031;-61
2024/03/23 00:11:32;;;;;;;0.00;0.00;;;;;;;7.01;61.75;100984.50;7356420;19;20003;-59
2024/03/23 00:13:59;;;;;;;0.10;0.10;;;;;;;6.99;61.48;100974.13;7361272;19;20017;-61
2024/03/23 00:16:26;;;;;;;0.00;0.00;;;;;;;6.98;61.82;100967.19;7361366;19;20014;-60
2024/03/23 00:18:53;;;;;;;0.10;0.10;;;;;;;6.96;61.03;100953.34;7360891;19;20431;-61
2024/03/23 00:21:19;;;;;;;0.10;0.10;;;;;;;6.95;61.80;100959.44;7362939;19;19998;-60
2024/03/23 00:23:46;;;;;;;0.10;0.10;;;;;;;6.92;61.73;100951.63;7359098;19;20026;-60
2024/03/23 00:26:15;;;;;;;0.10;0.10;;;;;;;6.91;61.75;100944.72;7362263;19;20700;-60
2024/03/23 00:28:42;;;;;;;0.00;0.00;;;;;;;6.86;62.04;100951.66;7361290;19;20447;-61
2024/03/23 00:31:09;;;;;;;0.10;0.10;;;;;;;6.86;61.56;100950.81;7358993;19;20774;-60
2024/03/23 00:33:36;;;;;;;0.10;0.10;;;;;;;6.83;61.43;100956.84;7367292;19;20032;-60
2024/03/23 00:36:03;;;;;;;0.00;0.00;;;;;;;6.80;61.50;100946.50;7368646;19;20009;-60
2024/03/23 00:38:29;;;;;;;0.03;0.03;;;;;;;6.79;61.17;100949.06;7365670;19;20029;-60
2024/03/23 00:40:58;;;;;;;0.10;0.10;;;;;;;6.76;61.85;100944.78;7366542;19;20561;-61
2024/03/23 00:43:25;;;;;;;0.10;0.10;;;;;;;6.74;61.45;100942.19;7367233;19;20509;-61
2024/03/23 00:45:51;;;;;;;0.08;0.08;;;;;;;6.71;61.87;100955.16;7366180;19;20014;-59
2024/03/23 00:48:18;;;;;;;0.10;0.10;;;;;;;6.71;62.14;100954.31;7365406;19;20006;-61
2024/03/23 00:50:45;;;;;;;0.10;0.10;;;;;;;6.70;61.96;100957.78;7367784;19;20016;-60
2024/03/23 00:53:10;;;;;;;0.10;0.10;;;;;;;6.68;62.04;100962.09;7365585;19;20011;-60
2024/03/23 00:55:36;;;;;;;0.00;0.00;;;;;;;6.68;62.26;100956.91;7366753;19;20056;-60
2024/03/23 00:58:01;;;;;;;0.00;0.00;;;;;;;6.67;62.62;100955.19;7365462;19;20697;-60
2024/03/23 01:00:27;;;;;;;0.10;0.10;;;;;;;6.66;61.81;100969.03;7368288;19;19995;-59
2024/03/23 01:02:52;;;;;;;0.00;0.00;;;;;;;6.66;62.22;100954.31;7365845;19;19999;-59
2024/03/23 01:05:18;;;;;;;0.10;0.10;;;;;;;6.64;62.39;100966.44;7366456;19;20022;-59
2024/03/23 01:07:44;;;;;;;0.00;0.00;;;;;;;6.64;62.49;100966.44;7358246;19;20007;-60
2024/03/23 01:10:09;;;;;;;0.10;0.10;;;;;;;6.63;63.05;100953.44;7361183;19;20321;-61
2024/03/23 01:12:35;;;;;;;0.10;0.10;;;;;;;6.58;62.67;100955.19;7365913;19;19998;-61
2024/03/23 01:15:00;;;;;;;0.10;0.10;;;;;;;6.61;62.78;100950.88;7366233;19;20010;-62
2024/03/23 01:17:25;;;;;;;0.10;0.10;;;;;;;6.59;62.55;100941.34;7369485;19;20001;-61
2024/03/23 01:19:51;;;;;;;0.00;0.00;;;;;;;6.60;62.55;100943.09;7365482;19;19998;-61
2024/03/23 01:22:16;;;;;;;0.10;0.10;;;;;;;6.59;62.12;100959.50;7368828;19;20028;-61
2024/03/23 01:24:42;;;;;;;0.10;0.10;;;;;;;6.58;62.73;100944.81;7368666;19;20728;-61
2024/03/23 01:27:08;;;;;;;0.10;0.10;;;;;;;6.57;62.23;100945.69;7369070;19;20003;-61
2024/03/23 01:29:34;;;;;;;0.10;0.10;;;;;;;6.56;62.66;100942.22;7364913;19;20884;-62
2024/03/23 01:31:59;;;;;;;0.00;0.00;;;;;;;6.55;63.00;100931.88;7371345;19;20014;-60
2024/03/23 01:34:25;;;;;;;0.10;0.10;;;;;;;6.42;63.45;100910.25;7364154;19;20010;-61
2024/03/23 01:36:51;;;;;;;0.00;0.00;;;;;;;6.55;63.88;100918.91;7366705;19;20007;-60
2024/03/23 01:39:16;;;;;;;0.00;0.00;;;;;;;6.55;63.33;100898.13;7362585;19;20500;-62
2024/03/23 01:41:42;;;;;;;0.03;0.03;;;;;;;6.57;63.98;100922.34;7366903;19;20851;-61
2024/03/23 01:44:08;;;;;;;0.00;0.00;;;;;;;6.56;63.76;100920.63;7363278;19;20643;-62
2024/03/23 01:46:43;;;;;;;0.00;0.00;;;;;;;6.58;62.74;100924.06;7366510;19;20015;-60
2024/03/23 01:49:09;;;;;;;0.10;0.10;;;;;;;6.42;63.65;100885.19;7363839;19;20018;-61
2024/03/23 01:51:35;;;;;;;0.00;0.00;;;;;;;6.53;63.04;100907.63;7366187;19;20006;-61
2024/03/23 01:54:06;;;;;;;0.10;0.10;;;;;;;6.52;63.27;100913.69;7365835;19;20471;-61
2024/03/23 01:56:35;;;;;;;0.10;0.10;;;;;;;6.50;63.74;100917.16;7364732;19;20403;-61
2024/03/23 01:59:03;;;;;;;0.00;0.00;;;;;;;6.48;63.07;100908.50;7367940;19;20490;-61
2024/03/23 02:01:29;;;;;;;0.00;0.00;;;;;;;6.46;62.95;100910.25;7365532;19;20001;-62
2024/03/23 02:03:54;;;;;;;0.05;0.05;;;;;;;6.44;63.65;100906.81;7367449;19;19998;-60
2024/03/23 02:06:19;;;;;;;0.10;0.10;;;;;;;6.42;63.53;100897.28;7364891;19;20784;-61
2024/03/23 02:08:45;;;;;;;0.10;0.10;;;;;;;6.42;63.91;100912.84;7360573;19;20020;-61
2024/03/23 02:11:10;;;;;;;0.00;0.00;;;;;;;6.34;63.82;100894.75;7365879;19;20019;-61
2024/03/23 02:13:36;;;;;;;0.08;0.08;;;;;;;6.40;63.63;100906.81;7362578;19;20034;-61
2024/03/23 02:16:01;;;;;;;0.00;0.00;;;;;;;6.39;64.02;100911.16;7363939;19;20039;-61
2024/03/23 02:18:27;;;;;;;0.00;0.00;;;;;;;6.39;63.77;100902.50;7369068;19;20482;-61
2024/03/23 02:20:52;;;;;;;0.00;0.00;;;;;;;6.28;63.80;100889.53;7367643;19;20059;-62
2024/03/23 02:23:18;;;;;;;0.00;0.00;;;;;;;6.36;63.71;100900.78;7367759;19;20322;-60
2024/03/23 02:25:44;;;;;;;0.00;0.00;;;;;;;6.33;63.65;100902.50;7366593;19;20010;-60
2024/03/23 02:28:10;;;;;;;0.08;0.08;;;;;;;6.35;63.60;100901.66;7367849;19;20006;-61
2024/03/23 02:30:36;;;;;;;0.10;0.10;;;;;;;6.33;64.24;100897.31;7369874;19;20750;-61
2024/03/23 02:33:01;;;;;;;0.05;0.05;;;;;;;6.33;63.62;100898.16;7368564;19;20067;-61
2024/03/23 02:35:27;;;;;;;0.10;0.10;;;;;;;6.33;63.89;100898.16;7369503;19;20010;-61
2024/03/23 02:37:53;;;;;;;0.00;0.00;;;;;;;6.34;64.15;100889.56;7362973;19;20541;-62
2024/03/23 02:40:20;;;;;;;0.00;0.00;;;;;;;6.36;64.51;100898.19;7363019;19;20018;-61
2024/03/23 02:42:45;;;;;;;0.10;0.10;;;;;;;6.38;64.40;100896.44;7370305;19;20043;-60
2024/03/23 02:45:11;;;;;;;0.10;0.10;;;;;;;6.42;64.05;100899.88;7367528;19;20626;-61
2024/03/23 02:47:36;;;;;;;0.00;0.00;;;;;;;6.44;64.13;100895.59;7366593;19;20002;-61
2024/03/23 02:50:01;;;;;;;0.10;0.10;;;;;;;6.47;64.32;100899.00;7363757;19;20016;-61
2024/03/23 02:52:27;;;;;;;0.05;0.05;;;;;;;6.50;64.35;100891.22;7368719;19;20026;-62
2024/03/23 02:54:52;;;;;;;0.10;0.10;;;;;;;6.52;64.64;100886.03;7368164;19;20040;-62
2024/03/23 02:57:18;;;;;;;0.10;0.10;;;;;;;6.56;63.61;100886.88;7365078;19;20009;-61
2024/03/23 02:59:43;;;;;;;0.10;0.10;;;;;;;6.57;64.66;100881.69;7360157;19;20011;-61
2024/03/23 03:02:09;;;;;;;0.10;0.10;;;;;;;6.61;64.48;100877.34;7364512;19;20341;-61
2024/03/23 03:04:34;;;;;;;0.00;0.00;;;;;;;6.63;63.83;100880.78;7362893;19;20007;-61
2024/03/23 03:07:00;;;;;;;0.10;0.10;;;;;;;6.64;64.51;100887.69;7366879;19;20012;-61
2024/03/23 03:09:25;;;;;;;0.00;0.00;;;;;;;6.61;64.55;100878.22;7365878;19;20005;-62
2024/03/23 03:11:50;;;;;;;0.08;0.08;;;;;;;6.66;64.81;100871.28;7364089;19;20921;-62
2024/03/23 03:14:16;;;;;;;0.00;0.00;;;;;;;6.68;64.44;100863.47;7366813;19;20043;-62
2024/03/23 03:16:41;;;;;;;0.05;0.05;;;;;;;6.69;64.76;100878.16;7364971;19;20003;-61
2024/03/23 03:19:07;;;;;;;0.00;0.00;;;;;;;6.67;64.44;100853.97;7363338;19;20048;-60
2024/03/23 03:21:32;;;;;;;0.10;0.10;;;;;;;6.66;65.00;100849.66;7365763;19;20505;-60
2024/03/23 03:23:58;;;;;;;0.08;0.08;;;;;;;6.64;64.58;100848.78;7365950;19;20017;-61
2024/03/23 03:26:24;;;;;;;0.10;0.10;;;;;;;6.62;64.92;100842.75;7366110;19;20006;-61
2024/03/23 03:28:50;;;;;;;0.05;0.05;;;;;;;6.60;64.46;100840.16;7364669;19;20089;-60
2024/03/23 03:31:16;;;;;;;0.10;0.10;;;;;;;6.58;64.66;100835.84;7366567;19;19999;-60
2024/03/23 03:33:42;;;;;;;0.05;0.05;;;;;;;6.57;64.85;100839.31;7365850;19;20529;-59
2024/03/23 03:36:08;;;;;;;0.10;0.10;;;;;;;6.56;64.86;100827.22;7363875;19;20010;-60
2024/03/23 03:38:35;;;;;;;0.10;0.10;;;;;;;6.56;64.63;100822.03;7362113;19;20030;-61
2024/03/23 03:41:01;;;;;;;0.10;0.10;;;;;;;6.56;65.05;100824.63;7366375;19;20826;-61
2024/03/23 03:43:26;;;;;;;0.10;0.10;;;;;;;6.56;64.96;100822.03;7356650;19;20061;-60
2024/03/23 03:45:53;;;;;;;0.10;0.10;;;;;;;6.55;64.89;100815.13;7364416;19;20025;-61
2024/03/23 03:48:18;;;;;;;0.00;0.00;;;;;;;6.56;65.18;100811.66;7362847;19;20017;-60
2024/03/23 03:50:44;;;;;;;0.03;0.03;;;;;;;6.53;65.15;100796.09;7362223;19;20356;-60
2024/03/23 03:53:09;;;;;;;0.10;0.10;;;;;;;6.57;64.92;100803.00;7361063;19;20566;-60
2024/03/23 03:55:34;;;;;;;0.00;0.00;;;;;;;6.57;64.80;100787.41;7363460;19;20002;-62
2024/03/23 03:58:00;;;;;;;0.10;0.10;;;;;;;6.58;64.53;100783.94;7367298;19;20488;-60
2024/03/23 04:00:25;;;;;;;0.10;0.10;;;;;;;6.57;65.21;100797.81;7362590;19;19998;-61
2024/03/23 04:02:51;;;;;;;0.03;0.03;;;;;;;6.56;65.17;100796.09;7364360;19;19998;-61
2024/03/23 04:05:16;;;;;;;0.05;0.05;;;;;;;6.59;65.40;100798.63;7358379;19;20681;-61
2024/03/23 04:07:42;;;;;;;0.00;0.00;;;;;;;6.60;64.67;100788.28;7360528;19;20121;-62
2024/03/23 04:10:08;;;;;;;0.00;0.00;;;;;;;6.61;64.73;100778.75;7364161;19;20410;-60
2024/03/23 04:12:34;;;;;;;0.10;0.10;;;;;;;6.51;64.82;100777.94;7356641;19;20018;-60
2024/03/23 04:15:00;;;;;;;0.03;0.03;;;;;;;6.53;65.07;100759.75;7364190;19;20033;-62
2024/03/23 04:17:31;;;;;;;0.05;0.05;;;;;;;6.62;65.16;100780.47;7343765;19;20017;-61
2024/03/23 04:19:57;;;;;;;0.00;0.00;;;;;;;6.62;64.66;100775.28;7364787;19;20002;-61
2024/03/23 04:22:24;;;;;;;0.10;0.10;;;;;;;6.62;65.14;100770.09;7366496;19;20010;-61
2024/03/23 04:24:49;;;;;;;0.03;0.03;;;;;;;6.60;64.82;100761.47;7362339;19;20463;-61
2024/03/23 04:27:14;;;;;;;0.10;0.10;;;;;;;6.61;64.87;100764.06;7363395;19;20031;-61
2024/03/23 04:29:40;;;;;;;0.10;0.10;;;;;;;6.61;64.69;100742.44;7361067;19;20002;-60
2024/03/23 04:32:06;;;;;;;0.10;0.10;;;;;;;6.58;64.84;100753.69;7362742;19;20042;-60
2024/03/23 04:34:32;;;;;;;0.10;0.10;;;;;;;6.60;64.06;100743.31;7360810;19;20348;-61
2024/03/23 04:36:58;;;;;;;0.10;0.10;;;;;;;6.57;64.81;100733.78;7360932;19;20010;-61
2024/03/23 04:39:23;;;;;;;0.00;0.00;;;;;;;6.56;64.66;100739.88;7356374;19;20018;-59
2024/03/23 04:41:49;;;;;;;0.00;0.00;;;;;;;6.46;64.57;100733.84;7364039;19;20374;-61
2024/03/23 04:44:15;;;;;;;0.10;0.10;;;;;;;6.57;64.63;100740.72;7361424;19;20006;-62
2024/03/23 04:46:40;;;;;;;0.10;0.10;;;;;;;6.57;65.15;100740.72;7362848;19;20511;-60
2024/03/23 04:49:06;;;;;;;0.05;0.05;;;;;;;6.57;65.04;100738.97;7362408;19;20014;-61
2024/03/23 04:51:41;;;;;;;0.10;0.10;;;;;;;6.62;64.89;100733.78;7365619;19;20525;-61
2024/03/23 04:54:06;;;;;;;0.10;0.10;;;;;;;6.59;65.16;100729.47;7362398;19;20034;-61
2024/03/23 04:56:32;;;;;;;0.10;0.10;;;;;;;6.62;64.56;100720.78;7362310;19;20007;-61
2024/03/23 04:59:01;;;;;;;0.00;0.00;;;;;;;6.64;64.59;100726.81;7364901;19;20879;-60
2024/03/23 05:01:27;;;;;;;0.10;0.10;;;;;;;6.62;65.22;100708.69;7360818;19;20006;-61
2024/03/23 05:03:52;;;;;;;0.00;0.00;;;;;;;6.64;64.69;100713.84;7363641;19;20949;-60
2024/03/23 05:06:18;;;;;;;0.10;0.10;;;;;;;6.68;64.73;100705.19;7363852;19;20003;-60
2024/03/23 05:08:45;;;;;;;0.10;0.10;;;;;;;6.69;65.13;100712.09;7356696;19;20729;-61
2024/03/23 05:11:11;;;;;;;0.10;0.10;;;;;;;6.72;65.03;100709.50;7363655;19;19995;-60
2024/03/23 05:13:36;;;;;;;0.10;0.10;;;;;;;6.72;64.98;100709.50;7362962;19;20007;-61
2024/03/23 05:16:02;;;;;;;0.10;0.10;;;;;;;6.73;64.92;100703.41;7364274;19;20002;-61
2024/03/23 05:18:28;;;;;;;0.10;0.10;;;;;;;6.76;65.32;100700.81;7366558;19;20019;-61
2024/03/23 05:20:57;;;;;;;0.10;0.10;;;;;;;6.80;65.04;100704.25;7365711;19;20010;-62
2024/03/23 05:23:23;;;;;;;0.10;0.10;;;;;;;6.68;64.81;100674.03;7367779;19;20488;-60
2024/03/23 05:25:49;;;;;;;0.10;0.10;;;;;;;6.81;65.15;100693.00;7368065;19;20388;-61
2024/03/23 05:28:14;;;;;;;0.10;0.10;;;;;;;6.81;65.71;100696.44;7363181;19;20014;-60
2024/03/23 05:30:39;;;;;;;0.08;0.08;;;;;;;6.84;65.80;100685.16;7370711;19;20070;-61
2024/03/23 05:33:05;;;;;;;0.10;0.10;;;;;;;6.84;65.71;100683.44;7369826;19;20380;-61
2024/03/23 05:35:31;;;;;;;0.08;0.08;;;;;;;6.73;64.91;100665.34;7370611;19;19998;-61
2024/03/23 05:37:58;;;;;;;0.00;0.00;;;;;;;6.83;65.14;100681.72;7364704;19;20002;-61
2024/03/23 05:40:24;;;;;;;0.10;0.10;;;;;;;6.83;64.98;100676.53;7369169;19;20078;-61
2024/03/23 05:42:52;;;;;;;0.10;0.10;;;;;;;6.84;64.91;100678.25;7364245;19;20010;-60
2024/03/23 05:45:18;;;;;;;0.03;0.03;;;;;;;6.82;65.35;100690.38;7369750;19;20054;-61
2024/03/23 05:47:44;;;;;;;0.10;0.10;;;;;;;6.83;64.76;100683.44;7368517;19;20870;-61
2024/03/23 05:50:12;;;;;;;0.08;0.08;;;;;;;6.82;64.95;100685.19;7362850;19;20003;-60
2024/03/23 05:52:38;;;;;;;0.03;0.03;;;;;;;6.82;65.24;100689.53;7368127;19;20507;-61
2024/03/23 05:55:04;;;;;;;0.10;0.10;;;;;;;6.82;65.41;100682.59;7364397;19;20032;-61
2024/03/23 05:57:29;;;;;;;0.10;0.10;;;;;;;6.83;65.19;100694.69;7365522;19;20010;-60
2024/03/23 05:59:55;;;;;;;0.10;0.10;;;;;;;6.83;65.58;100681.72;7369104;19;20002;-60
2024/03/23 06:02:20;;;;;;;0.10;0.10;;;;;;;6.84;65.70;100688.63;7371491;19;20361;-60
2024/03/23 06:04:46;;;;;;;0.08;0.08;;;;;;;6.84;65.66;100693.81;7362133;19;20009;-61
2024/03/23 06:07:13;;;;;;;0.03;0.03;;;;;;;6.86;66.00;100702.47;7368591;19;20024;-62
2024/03/23 06:09:39;;;;;;;0.00;0.00;;;;;;;6.84;66.07;100674.78;7357296;19;20014;-61
2024/03/23 06:12:05;;;;;;;0.10;0.10;;;;;;;6.82;66.52;100689.53;7369182;19;20770;-61
2024/03/23 06:14:31;;;;;;;0.10;0.10;;;;;;;6.81;66.06;100693.84;7369356;19;20001;-61
2024/03/23 06:16:56;;;;;;;0.00;0.00;;;;;;;6.79;66.82;100681.75;7365004;19;20023;-60
2024/03/23 06:19:21;;;;;;;0.10;0.10;;;;;;;6.78;66.14;100687.81;7365919;19;20526;-61
2024/03/23 06:21:47;;;;;;;0.10;0.10;;;;;;;6.76;66.32;100682.66;7367509;19;20479;-61
2024/03/23 06:24:12;;;;;;;0.00;0.00;;;;;;;6.76;66.51;100682.66;7366698;19;20117;-61
2024/03/23 06:26:38;;;;;;;0.00;0.00;;;;;;;6.74;66.70;100685.25;7361017;19;20015;-60
2024/03/23 06:29:05;;;;;;;0.10;0.10;;;;;;;6.75;66.24;100678.34;7362117;19;20014;-61
2024/03/23 06:31:30;;;;;;;0.10;0.10;;;;;;;6.42;66.65;100638.78;7364074;19;20028;-60
2024/03/23 06:33:56;;;;;;;0.00;0.00;;;;;;;6.72;66.52;100681.81;7363819;19;20018;-59
2024/03/23 06:36:21;;;;;;;0.00;0.00;;;;;;;6.74;66.23;100687.84;7370148;19;20007;-60
2024/03/23 06:38:47;;;;;;;0.08;0.08;;;;;;;6.74;66.25;100676.59;7365215;19;20628;-61
2024/03/23 06:41:12;;;;;;;0.05;0.05;;;;;;;6.74;66.63;100681.78;7367291;19;20002;-61
2024/03/23 06:43:38;;;;;;;0.10;0.10;;;;;;;6.70;67.09;100674.91;7364750;19;20066;-61
2024/03/23 06:46:06;;;;;;;0.03;0.03;;;;;;;6.68;67.40;100674.91;7367934;19;20080;-62
2024/03/23 06:48:31;;;;;;;0.00;0.00;;;;;;;6.64;67.34;100674.94;7367631;19;20042;-61
2024/03/23 06:50:57;;;;;;;0.10;0.10;;;;;;;6.67;67.23;100674.94;7365822;19;20483;-61
2024/03/23 06:53:23;;;;;;;0.08;0.08;;;;;;;6.64;67.76;100680.13;7368586;19;19999;-61
2024/03/23 06:55:53;;;;;;;0.10;0.10;;;;;;;6.65;68.37;100689.66;7361081;19;20006;-62
2024/03/23 06:58:23;;;;;;;0.00;0.00;;;;;;;6.58;68.14;100668.06;7362565;19;20006;-61
2024/03/23 07:00:49;;;;;;;0.10;0.10;;;;;;;6.60;68.90;100673.25;7368838;19;20745;-62
2024/03/23 07:03:15;;;;;;;0.00;0.00;;;;;;;6.64;67.81;100672.34;7366452;19;20098;-61
2024/03/23 07:05:40;;;;;;;0.10;0.10;;;;;;;6.61;69.04;100667.19;7363250;19;20006;-62
2024/03/23 07:08:06;;;;;;;0.10;0.10;;;;;;;6.59;68.77;100666.31;7365663;19;21865;-62
2024/03/23 07:10:31;;;;;;;0.05;0.05;;;;;;;6.62;68.70;100661.13;7366625;19;19999;-63
2024/03/23 07:12:57;;;;;;;0.10;0.10;;;;;;;6.61;68.72;100664.59;7365294;19;20023;-63
2024/03/23 07:15:22;;;;;;;0.00;0.00;;;;;;;6.60;68.23;100657.69;7367233;19;20496;-62
2024/03/23 07:17:48;;;;;;;0.00;0.00;;;;;;;6.58;69.18;100654.22;7367750;19;19998;-62
2024/03/23 07:20:14;;;;;;;0.00;0.00;;;;;;;6.56;68.30;100664.63;7365229;19;20015;-62
2024/03/23 07:22:39;;;;;;;0.10;0.10;;;;;;;6.55;69.57;100656.88;7365372;19;20029;-64
2024/03/23 07:25:06;;;;;;;0.10;0.10;;;;;;;6.53;68.93;100656.84;7363189;19;21039;-63
2024/03/23 07:27:31;;;;;;;0.10;0.10;;;;;;;6.52;69.15;100660.31;7366696;19;20003;-64
2024/03/23 07:29:57;;;;;;;0.10;0.10;;;;;;;6.52;69.55;100659.47;7363096;19;20044;-63
2024/03/23 07:32:22;;;;;;;0.10;0.10;;;;;;;6.54;69.14;100652.53;7365010;19;20494;-64
2024/03/23 07:34:48;;;;;;;0.00;0.00;;;;;;;6.56;69.15;100650.78;7363366;19;20003;-63
2024/03/23 07:37:13;;;;;;;0.00;0.00;;;;;;;6.59;69.81;100645.56;7359854;19;20002;-62
2024/03/23 07:39:39;;;;;;;0.10;0.10;;;;;;;6.46;69.80;100627.50;7361447;19;20014;-63
2024/03/23 07:42:05;;;;;;;0.10;0.10;;;;;;;6.66;69.78;100662.81;7362935;19;20014;-62
2024/03/23 07:44:30;;;;;;;0.10;0.10;;;;;;;6.61;69.44;100654.22;7365205;19;20648;-62
2024/03/23 07:46:56;;;;;;;0.10;0.10;;;;;;;6.74;69.95;100654.13;7359867;19;20018;-63
2024/03/23 07:49:21;;;;;;;0.00;0.00;;;;;;;6.78;69.49;100662.72;7366424;19;20650;-62
2024/03/23 07:51:47;;;;;;;0.10;0.10;;;;;;;6.81;69.72;100657.53;7362857;19;20003;-62
2024/03/23 07:54:12;;;;;;;0.10;0.10;;;;;;;6.85;69.31;100659.22;7364091;19;20403;-62
2024/03/23 07:56:37;;;;;;;0.05;0.05;;;;;;;6.88;69.85;100669.56;7361116;19;20018;-62
2024/03/23 07:59:03;;;;;;;0.10;0.10;;;;;;;6.91;69.41;100669.56;7364961;19;20393;-63
2024/03/23 08:01:28;;;;;;;0.10;0.10;;;;;;;6.89;69.61;100660.03;7362969;19;19999;-63
2024/03/23 08:03:54;;;;;;;0.10;0.10;;;;;;;6.95;69.80;100666.06;7365469;19;20399;-62
2024/03/23 08:06:21;;;;;;;0.10;0.10;;;;;;;6.83;69.78;100649.72;7365545;19;20843;-63
2024/03/23 08:08:49;;;;;;;0.10;0.10;;;;;;;6.96;69.52;100675.56;7365686;19;20025;-62
2024/03/23 08:11:14;;;;;;;0.00;0.00;;;;;;;6.97;68.98;100685.06;7363791;19;20478;-62
2024/03/23 08:13:41;;;;;;;0.10;0.10;;;;;;;6.98;70.01;100689.38;7365985;19;20003;-63
2024/03/23 08:16:08;;;;;;;0.10;0.10;;;;;;;6.99;69.68;100698.91;7326448;19;20027;-63
2024/03/23 08:18:34;;;;;;;0.10;0.10;;;;;;;6.96;70.24;100693.75;7355540;19;20022;-63
2024/03/23 08:21:01;;;;;;;0.10;0.10;;;;;;;6.98;69.87;100697.16;7361525;19;20006;-62
2024/03/23 08:23:30;;;;;;;0.10;0.10;;;;;;;6.99;70.08;100698.91;7360260;19;20378;-63
2024/03/23 08:26:04;;;;;;;0.10;0.10;;;;;;;6.90;70.11;100678.22;7359373;19;19998;-63
2024/03/23 08:28:29;;;;;;;0.10;0.10;;;;;;;6.94;69.01;100685.09;7351262;19;20024;-64
2024/03/23 08:30:56;;;;;;;0.10;0.10;;;;;;;6.95;69.11;100671.25;7361178;19;20768;-64
2024/03/23 08:33:24;;;;;;;0.10;0.10;;;;;;;6.92;70.17;100660.03;7358016;19;20002;-63
2024/03/23 08:35:57;;;;;;;0.03;0.03;;;;;;;6.89;69.59;100655.72;7358240;19;19999;-64
2024/03/23 08:38:23;;;;;;;0.00;0.00;;;;;;;6.88;70.11;100664.38;7360400;19;20012;-63
2024/03/23 08:40:59;;;;;;;0.10;0.10;;;;;;;6.93;70.26;100661.75;7356295;19;20013;-64
2024/03/23 08:43:25;;;;;;;0.10;0.10;;;;;;;6.92;70.40;100658.28;7356776;19;20010;-63
2024/03/23 08:45:51;;;;;;;0.10;0.10;;;;;;;6.92;69.78;100650.50;7360330;19;20014;-63
2024/03/23 08:48:18;;;;;;;0.10;0.10;;;;;;;6.95;70.64;100655.69;7358243;19;20562;-63
2024/03/23 08:50:43;;;;;;;0.10;0.10;;;;;;;6.95;70.41;100666.06;7361013;19;20003;-63
2024/03/23 08:53:09;;;;;;;0.10;0.10;;;;;;;6.98;69.92;100673.81;7357703;19;20574;-62
2024/03/23 08:55:35;;;;;;;0.10;0.10;;;;;;;6.97;70.48;100664.31;7368020;19;19991;-63
2024/03/23 08:58:00;;;;;;;0.10;0.10;;;;;;;6.98;70.66;100655.63;7366117;19;20001;-64
2024/03/23 09:00:26;;;;;;;0.10;0.10;;;;;;;6.99;70.30;100652.19;7366263;19;19998;-63
2024/03/23 09:02:52;;;;;;;0.10;0.10;;;;;;;6.90;70.49;100636.69;7367033;19;20003;-63
2024/03/23 09:05:18;;;;;;;0.10;0.10;;;;;;;6.86;71.21;100629.78;7366288;19;20574;-63
2024/03/23 09:07:43;;;;;;;0.10;0.10;;;;;;;7.05;70.54;100643.47;7365181;19;20002;-63
2024/03/23 09:10:09;;;;;;;0.10;0.10;;;;;;;7.15;70.70;100654.66;7364722;19;20015;-62
2024/03/23 09:12:34;;;;;;;0.10;0.10;;;;;;;7.31;71.27;100655.34;7362674;19;20013;-63
2024/03/23 09:14:59;;;;;;;0.10;0.10;;;;;;;7.48;71.45;100646.50;7368227;19;20895;-62
2024/03/23 09:17:25;;;;;;;0.10;0.10;;;;;;;7.69;71.24;100649.72;7364129;19;20006;-61
2024/03/23 09:19:50;;;;;;;0.10;0.10;;;;;;;7.86;71.60;100655.59;7366624;19;19999;-62
2024/03/23 09:22:16;;;;;;;0.10;0.10;;;;;;;8.07;71.80;100659.66;7362146;19;19998;-63
2024/03/23 09:24:41;;;;;;;0.10;0.10;;;;;;;8.26;71.73;100637.72;7362440;19;20642;-64
2024/03/23 09:27:06;;;;;;;0.05;0.05;;;;;;;8.61;71.65;100640.69;7366349;19;20008;-63
2024/03/23 09:29:32;;;;;;;0.10;0.10;;;;;;;8.87;71.31;100640.28;7360438;19;20055;-64
2024/03/23 09:31:57;;;;;;;0.10;0.10;;;;;;;9.07;71.42;100618.25;7362896;19;20020;-64
2024/03/23 09:34:23;;;;;;;0.10;0.10;;;;;;;9.46;71.37;100651.38;7361043;19;20107;-63
2024/03/23 09:36:51;;;;;;;0.10;0.10;;;;;;;9.71;71.18;100644.81;7365731;19;20779;-64
2024/03/23 09:39:17;;;;;;;0.10;0.10;;;;;;;9.98;70.94;100634.69;7361174;19;20436;-64
2024/03/23 09:41:42;;;;;;;0.10;0.10;;;;;;;10.14;70.21;100621.31;7369414;19;20011;-63
2024/03/23 09:44:08;;;;;;;0.10;0.10;;;;;;;10.45;70.25;100641.53;7366408;19;20022;-64
2024/03/23 09:46:36;;;;;;;0.10;0.10;;;;;;;10.63;69.31;100641.06;7365233;19;20043;-64
2024/03/23 09:49:04;;;;;;;0.10;0.10;;;;;;;10.74;68.47;100616.44;7365276;19;20049;-63
2024/03/23 09:51:30;;;;;;;0.10;0.10;;;;;;;10.56;67.98;100602.94;7368543;19;20085;-63
2024/03/23 09:53:55;;;;;;;0.10;0.10;;;;;;;10.62;67.32;100639.34;7362096;19;20123;-63
2024/03/23 09:56:21;;;;;;;0.10;0.10;;;;;;;10.55;67.67;100643.03;7366100;19;20006;-63
2024/03/23 09:58:47;;;;;;;0.10;0.10;;;;;;;10.51;68.04;100645.72;7364835;19;19999;-64
2024/03/23 10:01:12;;;;;;;0.10;0.10;;;;;;;10.59;68.34;100647.28;7363892;19;19998;-64
2024/03/23 10:03:47;;;;;;;0.10;0.10;;;;;;;10.67;68.09;100630.56;7364367;19;20087;-64
2024/03/23 10:06:12;;;;;;;0.10;0.10;;;;;;;10.75;68.01;100634.72;7362663;19;20608;-64
2024/03/23 10:08:38;;;;;;;0.10;0.10;;;;;;;10.84;68.14;100633.59;7360809;19;20009;-63
2024/03/23 10:11:30;;;;;;;0.10;0.10;;;;;;;11.04;68.28;100654.88;7362393;19;20482;-63
2024/03/23 10:13:56;;;;;;;0.10;0.10;;;;;;;11.06;67.89;100657.47;7365305;19;20007;-62
2024/03/23 10:16:23;;;;;;;0.10;0.10;;;;;;;11.14;67.40;100658.97;7361922;19;20026;-63
2024/03/23 10:18:49;;;;;;;0.10;0.10;;;;;;;11.13;66.99;100669.47;7365176;19;20017;-63
2024/03/23 10:21:16;;;;;;;0.10;0.10;;;;;;;11.08;67.22;100672.19;7362694;19;19995;-64
2024/03/23 10:23:42;;;;;;;0.10;0.10;;;;;;;11.00;67.07;100660.19;7363655;19;20027;-64
2024/03/23 10:26:25;;;;;;;0.10;0.10;;;;;;;10.91;66.84;100659.56;7365955;19;20018;-63
2024/03/23 10:28:54;;;;;;;0.10;0.10;;;;;;;10.78;66.81;100646.81;7354157;19;20532;-63
2024/03/23 10:31:20;;;;;;;0.10;0.10;;;;;;;10.65;67.22;100660.19;7360580;19;20420;-63
2024/03/23 10:33:49;;;;;;;0.10;0.10;;;;;;;10.67;67.85;100641.88;7361841;19;20010;-63
2024/03/23 10:36:15;;;;;;;0.10;0.10;;;;;;;10.58;68.54;100627.25;7359223;19;20002;-63
2024/03/23 10:38:42;;;;;;;0.10;0.10;;;;;;;10.85;68.53;100635.34;7358443;19;20471;-63
2024/03/23 10:41:10;;;;;;;0.10;0.10;;;;;;;11.06;68.33;100633.94;7363777;19;20017;-63
2024/03/23 10:43:36;;;;;;;0.10;0.10;;;;;;;11.29;68.44;100654.22;7358357;19;20285;-64
2024/03/23 10:46:02;;;;;;;0.05;0.05;;;;;;;11.55;68.51;100637.84;7361986;19;20364;-63
2024/03/23 10:48:28;;;;;;;0.10;0.10;;;;;;;11.81;67.71;100645.84;7360029;19;20028;-63
2024/03/23 10:50:53;;;;;;;0.10;0.10;;;;;;;11.98;67.25;100642.75;7360817;19;20399;-63
2024/03/23 10:53:24;;;;;;;0.10;0.10;;;;;;;12.13;66.06;100654.53;7359508;19;20081;-63
2024/03/23 10:55:51;;;;;;;0.10;0.10;;;;;;;12.18;66.79;100655.25;7361103;19;20835;-63
2024/03/23 10:58:21;;;;;;;0.10;0.10;;;;;;;12.30;65.87;100648.78;7361286;19;20468;-63
2024/03/23 11:00:47;;;;;;;0.10;0.10;;;;;;;12.34;65.85;100637.31;7362021;19;20450;-63
2024/03/23 11:03:31;;;;;;;0.10;0.10;;;;;;;12.43;65.16;100645.75;7362008;19;20009;-63
2024/03/23 11:05:57;;;;;;;0.10;0.10;;;;;;;12.32;65.04;100644.38;7361657;19;20146;-62
2024/03/23 11:08:36;;;;;;;0.10;0.10;;;;;;;12.30;64.77;100646.16;7361217;19;20516;-62
2024/03/23 11:11:17;;;;;;;0.10;0.10;;;;;;;12.22;64.47;100640.31;7361286;19;20732;-62
2024/03/23 11:13:42;;;;;;;0.10;0.10;;;;;;;12.07;65.55;100650.34;7359651;19;20348;-63
2024/03/23 11:16:17;;;;;;;0.00;0.00;;;;;;;12.06;65.68;100651.22;7359430;19;20002;-63
2024/03/23 11:18:43;;;;;;;0.10;0.10;;;;;;;12.05;66.04;100633.81;7362205;19;20035;-63
2024/03/23 11:21:09;;;;;;;0.10;0.10;;;;;;;12.17;65.97;100629.97;7360491;19;19998;-63
2024/03/23 11:23:34;;;;;;;0.10;0.10;;;;;;;12.38;65.24;100641.56;7359507;19;20365;-63
2024/03/23 11:26:00;;;;;;;0.10;0.10;;;;;;;12.58;65.77;100622.59;7363416;19;20010;-62
2024/03/23 11:28:26;;;;;;;0.10;0.10;;;;;;;12.79;65.48;100631.50;7361723;19;20740;-62